Time;durP1;ratioP1;P1;durP2;ratioP2;P2;SDS_P1;SDS_P2;PMS_P1;PMS_P2;Temp;Humidity;BMP_temperature;BMP_pressure;BME280_temperature;BME280_humidity;BME280_pressure;Samples;Min_cycle;Max_cycle;Signal;HPM_P1;HPM_P2
2022/10/06 00:01:02;;;;;;;6.47;2.90;;;;;;;;;;1724839;82;21027;-68
2022/10/06 00:03:29;;;;;;;4.97;2.90;;;;;;;;;;1724741;82;21075;-69
2022/10/06 00:05:58;;;;;;;5.72;3.00;;;;;;;;;;1724735;82;21504;-68
2022/10/06 00:08:25;;;;;;;7.37;4.15;;;;;;;;;;1719141;83;21048;-68
2022/10/06 00:10:55;;;;;;;5.08;3.05;;;;;;;;;;1722506;82;21055;-67
2022/10/06 00:13:23;;;;;;;5.12;2.83;;;;;;;;;;1722017;83;21032;-67
2022/10/06 00:15:51;;;;;;;4.22;2.80;;;;;;;;;;1723337;82;21072;-67
2022/10/06 00:18:17;;;;;;;7.60;3.15;;;;;;;;;;1722989;82;21060;-67
2022/10/06 00:20:44;;;;;;;4.03;2.70;;;;;;;;;;1718427;82;21125;-67
2022/10/06 00:23:10;;;;;;;11.45;3.02;;;;;;;;;;1714034;82;21532;-67
2022/10/06 00:25:37;;;;;;;5.85;2.75;;;;;;;;;;1718190;82;21261;-68
2022/10/06 00:28:03;;;;;;;3.98;2.70;;;;;;;;;;1706748;83;21100;-67
2022/10/06 00:30:30;;;;;;;4.78;3.00;;;;;;;;;;1713863;82;21057;-67
2022/10/06 00:32:58;;;;;;;5.60;2.72;;;;;;;;;;1716822;82;21040;-67
2022/10/06 00:35:24;;;;;;;3.58;2.45;;;;;;;;;;1688545;84;21089;-67
2022/10/06 00:37:50;;;;;;;4.40;2.87;;;;;;;;;;1713664;83;21052;-67
2022/10/06 00:40:17;;;;;;;5.08;2.62;;;;;;;;;;1713350;84;21068;-68
2022/10/06 00:42:59;;;;;;;5.53;2.87;;;;;;;;;;1712558;84;22165;-68
2022/10/06 00:45:33;;;;;;;3.55;2.58;;;;;;;;;;1709646;82;21072;-68
2022/10/06 00:48:02;;;;;;;4.47;2.58;;;;;;;;;;1719817;82;21036;-68
2022/10/06 00:50:28;;;;;;;4.17;2.92;;;;;;;;;;1672152;85;21116;-66
2022/10/06 00:52:55;;;;;;;3.55;2.60;;;;;;;;;;1658993;86;21078;-67
2022/10/06 00:55:21;;;;;;;4.20;2.52;;;;;;;;;;1724866;82;21567;-67
2022/10/06 00:57:48;;;;;;;6.17;2.55;;;;;;;;;;1714904;82;21088;-68
2022/10/06 01:03:29;;;;;;;3.52;2.50;;;;;;;;;;1723214;79;74926;-65
2022/10/06 01:05:55;;;;;;;3.70;2.33;;;;;;;;;;1785892;78;75040;-70
2022/10/06 01:08:21;;;;;;;5.17;2.83;;;;;;;;;;1802710;79;20970;-69
2022/10/06 01:10:46;;;;;;;5.17;2.42;;;;;;;;;;1805888;79;20991;-69
2022/10/06 01:13:13;;;;;;;5.05;2.77;;;;;;;;;;1804218;78;21056;-69
2022/10/06 01:15:41;;;;;;;8.50;3.22;;;;;;;;;;1804939;78;21012;-70
2022/10/06 01:18:11;;;;;;;5.75;2.47;;;;;;;;;;1804782;79;21001;-69
2022/10/06 01:20:38;;;;;;;5.10;2.75;;;;;;;;;;1788870;78;21022;-70
2022/10/06 01:23:05;;;;;;;5.70;2.50;;;;;;;;;;1800876;78;21002;-69
2022/10/06 01:25:32;;;;;;;5.58;2.52;;;;;;;;;;1812346;78;21104;-69
2022/10/06 01:28:00;;;;;;;5.03;2.67;;;;;;;;;;1804225;78;21077;-69
2022/10/06 01:30:28;;;;;;;3.77;2.65;;;;;;;;;;1794742;78;21472;-70
2022/10/06 01:32:55;;;;;;;3.85;2.80;;;;;;;;;;1795883;79;20996;-69
2022/10/06 01:35:22;;;;;;;6.37;2.87;;;;;;;;;;1801950;79;21446;-70
2022/10/06 01:37:48;;;;;;;4.47;2.70;;;;;;;;;;1800354;78;21524;-69
2022/10/06 01:40:14;;;;;;;4.65;2.85;;;;;;;;;;1797109;79;21022;-69
2022/10/06 01:42:40;;;;;;;3.60;2.40;;;;;;;;;;1802531;79;20990;-69
2022/10/06 01:45:07;;;;;;;3.67;2.70;;;;;;;;;;1800663;79;21445;-69
2022/10/06 01:47:34;;;;;;;5.30;2.87;;;;;;;;;;1803504;78;21044;-70
2022/10/06 01:50:01;;;;;;;4.90;2.33;;;;;;;;;;1770668;78;21032;-70
2022/10/06 01:52:29;;;;;;;5.72;2.70;;;;;;;;;;1798063;78;21454;-69
2022/10/06 01:54:55;;;;;;;3.98;2.30;;;;;;;;;;1799869;78;20997;-70
2022/10/06 01:57:21;;;;;;;3.20;2.42;;;;;;;;;;1798140;79;21025;-69
2022/10/06 01:59:48;;;;;;;4.90;2.80;;;;;;;;;;1800268;78;21004;-70
2022/10/06 02:02:14;;;;;;;7.05;2.60;;;;;;;;;;1800083;78;20965;-70
2022/10/06 02:04:41;;;;;;;8.05;2.92;;;;;;;;;;1796447;78;21549;-70
2022/10/06 02:07:08;;;;;;;6.87;2.70;;;;;;;;;;1754311;79;21041;-70
2022/10/06 02:09:36;;;;;;;4.83;2.98;;;;;;;;;;1786776;79;21013;-70
2022/10/06 02:12:04;;;;;;;5.72;2.80;;;;;;;;;;1760204;80;21037;-69
2022/10/06 02:14:33;;;;;;;5.12;2.60;;;;;;;;;;1773790;79;21616;-70
2022/10/06 02:16:59;;;;;;;5.62;2.85;;;;;;;;;;1778056;80;20974;-69
2022/10/06 02:19:26;;;;;;;5.50;2.95;;;;;;;;;;1785276;79;21019;-69
2022/10/06 02:21:52;;;;;;;6.22;2.80;;;;;;;;;;1723871;82;21076;-70
2022/10/06 02:24:19;;;;;;;5.47;2.72;;;;;;;;;;1710612;82;21571;-70
2022/10/06 02:26:45;;;;;;;4.53;2.55;;;;;;;;;;1719174;82;20985;-69
2022/10/06 02:29:12;;;;;;;6.50;2.90;;;;;;;;;;1720640;82;21003;-69
2022/10/06 02:31:38;;;;;;;5.92;2.87;;;;;;;;;;1729646;82;21495;-70
2022/10/06 02:34:05;;;;;;;5.67;2.85;;;;;;;;;;1727518;82;20979;-69
2022/10/06 02:36:31;;;;;;;5.45;2.83;;;;;;;;;;1725193;82;21057;-69
2022/10/06 02:38:58;;;;;;;4.97;2.50;;;;;;;;;;1727792;82;21057;-70
2022/10/06 02:41:24;;;;;;;5.87;2.80;;;;;;;;;;1734189;81;21482;-69
2022/10/06 02:43:53;;;;;;;5.12;2.70;;;;;;;;;;1773889;79;20982;-69
2022/10/06 02:46:18;;;;;;;5.28;2.80;;;;;;;;;;1777519;79;20997;-69
2022/10/06 02:48:46;;;;;;;4.47;2.55;;;;;;;;;;1761625;79;21025;-69
2022/10/06 02:51:14;;;;;;;4.87;2.80;;;;;;;;;;1775033;80;21478;-69
2022/10/06 02:53:42;;;;;;;5.17;2.70;;;;;;;;;;1775159;80;21004;-69
2022/10/06 02:56:15;;;;;;;6.00;2.70;;;;;;;;;;1773393;80;21536;-69
2022/10/06 02:58:41;;;;;;;4.58;2.35;;;;;;;;;;1782249;79;20973;-69
2022/10/06 03:01:11;;;;;;;5.72;2.75;;;;;;;;;;1776062;79;21001;-70
2022/10/06 03:03:39;;;;;;;4.97;3.08;;;;;;;;;;1784221;79;21076;-70
2022/10/06 03:06:22;;;;;;;4.20;2.58;;;;;;;;;;1790146;79;21004;-69
2022/10/06 03:09:06;;;;;;;5.87;3.20;;;;;;;;;;1779066;79;21100;-69
2022/10/06 03:11:38;;;;;;;3.45;2.47;;;;;;;;;;1794430;79;21029;-69
2022/10/06 03:14:04;;;;;;;5.33;2.80;;;;;;;;;;1788074;79;20979;-69
2022/10/06 03:16:32;;;;;;;5.28;2.80;;;;;;;;;;1782878;79;22467;-69
2022/10/06 03:18:59;;;;;;;5.37;3.40;;;;;;;;;;1785513;79;21035;-69
2022/10/06 03:21:29;;;;;;;5.15;2.62;;;;;;;;;;1780539;79;21538;-69
2022/10/06 03:23:56;;;;;;;6.95;3.15;;;;;;;;;;1799116;79;21024;-69
2022/10/06 03:26:25;;;;;;;6.20;2.87;;;;;;;;;;1758454;79;21424;-69
2022/10/06 03:28:52;;;;;;;4.03;3.00;;;;;;;;;;1716917;82;21036;-69
2022/10/06 03:31:18;;;;;;;5.08;2.90;;;;;;;;;;1736787;82;20968;-69
2022/10/06 03:36:40;;;;;;;7.47;3.42;;;;;;;;;;1843085;77;22899;-69
2022/10/06 03:39:07;;;;;;;7.53;3.10;;;;;;;;;;1816800;78;21527;-70
2022/10/06 03:41:35;;;;;;;7.10;3.37;;;;;;;;;;1809211;78;21055;-69
2022/10/06 03:44:01;;;;;;;6.75;3.02;;;;;;;;;;1807893;78;21055;-69
2022/10/06 03:46:30;;;;;;;5.17;3.00;;;;;;;;;;1754872;80;21063;-69
2022/10/06 03:48:56;;;;;;;4.97;2.85;;;;;;;;;;1744710;81;21002;-69
2022/10/06 03:51:26;;;;;;;5.35;3.15;;;;;;;;;;1728164;81;21540;-69
2022/10/06 03:53:52;;;;;;;4.97;2.98;;;;;;;;;;1769613;80;21555;-69
2022/10/06 03:56:21;;;;;;;7.25;3.00;;;;;;;;;;1770505;80;20988;-69
2022/10/06 03:58:48;;;;;;;7.50;3.00;;;;;;;;;;1771094;80;21087;-69
2022/10/06 04:01:15;;;;;;;9.75;2.92;;;;;;;;;;1773228;80;21036;-69
2022/10/06 04:03:41;;;;;;;7.00;2.87;;;;;;;;;;1776465;80;21101;-69
2022/10/06 04:06:10;;;;;;;6.33;3.75;;;;;;;;;;1761833;80;21065;-69
2022/10/06 04:08:37;;;;;;;5.95;3.10;;;;;;;;;;1742369;81;20993;-68
2022/10/06 04:11:05;;;;;;;5.10;3.30;;;;;;;;;;1787547;80;21024;-68
2022/10/06 04:13:31;;;;;;;5.95;3.00;;;;;;;;;;1779858;80;20969;-69
2022/10/06 04:15:57;;;;;;;4.28;2.80;;;;;;;;;;1752922;81;21085;-70
2022/10/06 04:18:24;;;;;;;6.97;3.52;;;;;;;;;;1762741;80;21025;-70
2022/10/06 04:20:53;;;;;;;4.72;2.92;;;;;;;;;;1759053;81;21003;-69
2022/10/06 04:23:19;;;;;;;6.70;3.20;;;;;;;;;;1752028;81;20991;-69
2022/10/06 04:25:46;;;;;;;5.50;3.22;;;;;;;;;;1779531;80;21012;-69
2022/10/06 04:28:13;;;;;;;5.53;2.98;;;;;;;;;;1776379;80;21068;-69
2022/10/06 04:30:39;;;;;;;5.17;2.90;;;;;;;;;;1775538;80;21040;-69
2022/10/06 04:33:06;;;;;;;8.70;3.40;;;;;;;;;;1779120;80;20939;-69
2022/10/06 04:35:32;;;;;;;5.55;3.20;;;;;;;;;;1769603;80;21017;-70
2022/10/06 04:37:59;;;;;;;4.60;3.50;;;;;;;;;;1766179;80;21036;-69
2022/10/06 04:40:25;;;;;;;7.55;3.65;;;;;;;;;;1769510;80;21485;-69
2022/10/06 04:42:51;;;;;;;8.65;3.62;;;;;;;;;;1773549;80;21005;-70
2022/10/06 04:45:17;;;;;;;7.33;3.67;;;;;;;;;;1775969;80;20974;-70
2022/10/06 04:47:46;;;;;;;6.08;3.80;;;;;;;;;;1772405;80;21851;-69
2022/10/06 04:50:12;;;;;;;6.83;3.98;;;;;;;;;;1744228;82;21507;-70
2022/10/06 04:52:40;;;;;;;7.03;3.62;;;;;;;;;;1752939;81;21029;-69
2022/10/06 04:55:06;;;;;;;8.08;3.87;;;;;;;;;;1752443;81;21020;-70
2022/10/06 04:57:33;;;;;;;7.35;4.03;;;;;;;;;;1743424;82;20973;-70
2022/10/06 05:02:45;;;;;;;6.90;4.30;;;;;;;;;;1751128;81;21084;-70
2022/10/06 05:05:12;;;;;;;4.97;3.52;;;;;;;;;;1769680;80;21099;-69
2022/10/06 05:07:38;;;;;;;7.80;4.05;;;;;;;;;;1765611;80;21519;-69
2022/10/06 05:10:04;;;;;;;7.92;3.70;;;;;;;;;;1775861;80;20986;-70
2022/10/06 05:12:31;;;;;;;7.28;3.60;;;;;;;;;;1768993;80;21004;-68
2022/10/06 05:14:59;;;;;;;9.03;3.80;;;;;;;;;;1776357;80;21068;-71
2022/10/06 05:17:25;;;;;;;6.30;3.42;;;;;;;;;;1766029;78;21535;-69
2022/10/06 05:19:52;;;;;;;8.23;3.60;;;;;;;;;;1780690;80;21023;-70
2022/10/06 05:22:19;;;;;;;4.87;3.35;;;;;;;;;;1768928;80;21006;-69
2022/10/06 05:24:45;;;;;;;8.55;3.75;;;;;;;;;;1741126;82;21053;-70
2022/10/06 05:27:14;;;;;;;8.55;3.90;;;;;;;;;;1747198;81;21037;-69
2022/10/06 05:29:40;;;;;;;6.17;3.90;;;;;;;;;;1761237;80;21010;-70
2022/10/06 05:32:14;;;;;;;;;;;;;;;;;;1760791;80;21059;-69
2022/10/06 05:34:46;;;;;;;6.83;4.00;;;;;;;;;;1730582;81;20464;-68
2022/10/06 05:37:18;;;;;;;7.20;3.62;;;;;;;;;;1758021;79;21079;-68
2022/10/06 05:39:57;;;;;;;5.83;3.45;;;;;;;;;;1722953;81;21053;-68
2022/10/06 05:42:36;;;;;;;5.90;3.75;;;;;;;;;;1703468;82;21019;-68
2022/10/06 05:45:18;;;;;;;8.18;3.52;;;;;;;;;;1726886;81;21080;-69
2022/10/06 05:47:59;;;;;;;4.78;3.30;;;;;;;;;;1788705;78;21002;-68
2022/10/06 05:50:40;;;;;;;5.78;3.55;;;;;;;;;;1797021;78;21009;-67
2022/10/06 05:53:22;;;;;;;7.72;3.50;;;;;;;;;;1797793;78;21026;-68
2022/10/06 05:56:03;;;;;;;6.47;3.98;;;;;;;;;;1787400;79;21136;-67
2022/10/06 05:58:44;;;;;;;6.83;3.65;;;;;;;;;;1783054;79;21036;-69
2022/10/06 06:01:27;;;;;;;6.78;3.58;;;;;;;;;;1788561;79;21048;-68
2022/10/06 06:04:08;;;;;;;7.95;3.65;;;;;;;;;;1787204;79;21103;-69
2022/10/06 06:09:32;;;;;;;4.97;3.20;;;;;;;;;;1642922;85;21103;-67
2022/10/06 06:12:01;;;;;;;6.67;3.65;;;;;;;;;;1670652;86;21543;-68
2022/10/06 06:17:23;;;;;;;6.50;3.30;;;;;;;;;;1701109;84;21606;-67
2022/10/06 06:19:54;;;;;;;5.20;3.30;;;;;;;;;;1701360;84;21067;-67
2022/10/06 06:22:18;;;;;;;5.50;3.45;;;;;;;;;;1666260;86;21056;-68
2022/10/06 06:24:46;;;;;;;4.15;2.83;;;;;;;;;;1667119;86;21059;-68
2022/10/06 06:27:15;;;;;;;8.43;3.77;;;;;;;;;;1667076;86;21074;-67
2022/10/06 06:29:41;;;;;;;6.37;3.40;;;;;;;;;;1667591;86;21034;-66
2022/10/06 06:32:08;;;;;;;6.50;3.00;;;;;;;;;;1667879;86;21122;-68
2022/10/06 06:34:40;;;;;;;;;;;;;;;;;;1669663;86;21086;-69
2022/10/06 06:37:19;;;;;;;5.08;2.67;;;;;;;;;;1667023;86;20218;-67
2022/10/06 06:39:59;;;;;;;6.22;2.90;;;;;;;;;;1666742;86;21145;-67
2022/10/06 06:42:25;;;;;;;4.50;2.72;;;;;;;;;;1666683;86;21121;-67
2022/10/06 06:44:53;;;;;;;4.90;2.80;;;;;;;;;;1659298;84;21613;-68
2022/10/06 06:47:21;;;;;;;5.45;2.87;;;;;;;;;;1667281;85;21101;-67
2022/10/06 06:49:48;;;;;;;4.05;2.75;;;;;;;;;;1666885;86;21641;-68
2022/10/06 06:52:14;;;;;;;5.83;3.37;;;;;;;;;;1666970;86;21095;-68
2022/10/06 06:54:41;;;;;;;4.90;3.00;;;;;;;;;;1667023;86;21046;-68
2022/10/06 06:57:09;;;;;;;5.37;3.08;;;;;;;;;;1667485;84;21073;-67
2022/10/06 06:59:37;;;;;;;6.30;2.98;;;;;;;;;;1666929;86;21058;-69
2022/10/06 07:02:04;;;;;;;4.85;3.08;;;;;;;;;;1667140;86;21026;-68
2022/10/06 07:04:32;;;;;;;7.72;3.30;;;;;;;;;;1667093;85;21554;-68
2022/10/06 07:06:58;;;;;;;6.55;3.20;;;;;;;;;;1673197;85;21129;-69
2022/10/06 07:09:30;;;;;;;5.47;3.75;;;;;;;;;;1683569;83;21094;-68
2022/10/06 07:11:58;;;;;;;6.30;3.60;;;;;;;;;;1648968;86;21070;-69
2022/10/06 07:14:24;;;;;;;7.42;3.58;;;;;;;;;;1674762;84;21010;-67
2022/10/06 07:25:11;;;;;;;6.35;3.10;;;;;;;;;;1673358;84;21079;-68
2022/10/06 07:27:42;;;;;;;5.05;2.80;;;;;;;;;;1676734;83;21072;-68
2022/10/06 07:30:16;;;;;;;4.50;3.22;;;;;;;;;;1676128;83;21144;-68
2022/10/06 07:32:42;;;;;;;4.72;3.10;;;;;;;;;;1672234;84;22233;-69
2022/10/06 07:35:09;;;;;;;4.58;3.10;;;;;;;;;;1683524;84;21104;-67
2022/10/06 07:37:35;;;;;;;8.50;3.20;;;;;;;;;;1691250;83;21081;-68
2022/10/06 07:40:03;;;;;;;5.97;3.52;;;;;;;;;;1689878;84;21070;-67
2022/10/06 07:42:29;;;;;;;8.45;4.10;;;;;;;;;;1675844;85;21068;-66
2022/10/06 07:47:41;;;;;;;6.03;3.75;;;;;;;;;;1687579;84;21069;-68
2022/10/06 07:50:10;;;;;;;4.72;3.17;;;;;;;;;;1689330;84;21502;-68
2022/10/06 07:52:38;;;;;;;4.92;3.25;;;;;;;;;;1673467;83;21077;-70
2022/10/06 07:55:06;;;;;;;6.33;3.40;;;;;;;;;;1684345;84;21005;-69
2022/10/06 07:57:44;;;;;;;4.85;3.27;;;;;;;;;;1670521;84;21576;-67
2022/10/06 08:00:11;;;;;;;4.22;2.90;;;;;;;;;;1672087;84;21041;-67
2022/10/06 08:02:38;;;;;;;4.70;3.15;;;;;;;;;;1677355;83;21002;-70
2022/10/06 08:05:05;;;;;;;3.98;3.00;;;;;;;;;;1696757;83;21109;-68
2022/10/06 08:07:34;;;;;;;5.80;3.40;;;;;;;;;;1684958;83;21114;-70
2022/10/06 08:10:00;;;;;;;5.55;3.37;;;;;;;;;;1646547;86;21080;-68
2022/10/06 08:12:31;;;;;;;5.75;3.10;;;;;;;;;;1639186;85;21031;-68
2022/10/06 08:15:02;;;;;;;5.58;3.10;;;;;;;;;;1638239;85;21050;-70
2022/10/06 08:17:28;;;;;;;4.30;3.02;;;;;;;;;;1672925;85;21015;-69
2022/10/06 08:19:54;;;;;;;4.10;2.90;;;;;;;;;;1669052;84;21061;-70
2022/10/06 08:22:21;;;;;;;7.72;3.00;;;;;;;;;;1671746;84;21587;-69
2022/10/06 08:24:47;;;;;;;7.30;3.20;;;;;;;;;;1676102;84;21077;-70
2022/10/06 08:27:13;;;;;;;5.03;3.10;;;;;;;;;;1670128;83;21009;-71
2022/10/06 08:29:39;;;;;;;5.05;3.20;;;;;;;;;;1670466;84;21090;-71
2022/10/06 08:32:05;;;;;;;4.75;3.00;;;;;;;;;;1654602;85;21135;-70
2022/10/06 08:34:31;;;;;;;7.08;3.37;;;;;;;;;;1658137;85;21016;-70
2022/10/06 08:36:57;;;;;;;5.80;3.42;;;;;;;;;;1685889;83;22291;-71
2022/10/06 08:39:23;;;;;;;4.10;3.15;;;;;;;;;;1677967;84;21017;-71
2022/10/06 08:41:50;;;;;;;7.80;3.15;;;;;;;;;;1670708;83;21292;-71
2022/10/06 08:44:18;;;;;;;5.78;3.50;;;;;;;;;;1639874;86;21100;-71
2022/10/06 08:46:48;;;;;;;6.75;3.77;;;;;;;;;;1641564;86;21241;-72
2022/10/06 08:49:15;;;;;;;5.20;3.58;;;;;;;;;;1631554;86;21181;-71
2022/10/06 08:51:49;;;;;;;6.42;3.75;;;;;;;;;;1635565;86;21029;-72
2022/10/06 08:54:29;;;;;;;5.90;3.40;;;;;;;;;;1641794;86;21036;-71
2022/10/06 08:56:58;;;;;;;4.70;3.15;;;;;;;;;;1635385;86;21507;-71
2022/10/06 08:59:24;;;;;;;6.22;3.67;;;;;;;;;;1641513;86;21555;-72
2022/10/06 09:01:53;;;;;;;5.75;3.62;;;;;;;;;;1644872;86;21075;-71
2022/10/06 09:04:24;;;;;;;4.95;3.08;;;;;;;;;;1640780;86;21112;-71
2022/10/06 09:06:52;;;;;;;6.17;3.52;;;;;;;;;;1638872;86;21623;-71
2022/10/06 09:09:24;;;;;;;4.60;3.17;;;;;;;;;;1603979;87;21065;-71
2022/10/06 09:11:51;;;;;;;;;;;;;;;;;;1645537;86;21179;-72
2022/10/06 09:14:23;;;;;;;5.42;3.12;;;;;;;;;;1641923;86;20165;-71
2022/10/06 09:16:51;;;;;;;7.30;3.52;;;;;;;;;;1638399;86;21631;-72
2022/10/06 09:19:19;;;;;;;5.75;3.42;;;;;;;;;;1645011;86;21615;-71
2022/10/06 09:21:47;;;;;;;5.25;3.10;;;;;;;;;;1624550;86;21086;-71
2022/10/06 09:24:14;;;;;;;5.90;3.02;;;;;;;;;;1642905;86;21052;-70
2022/10/06 09:26:45;;;;;;;5.75;3.35;;;;;;;;;;1642169;86;21032;-69
2022/10/06 09:29:13;;;;;;;6.80;2.98;;;;;;;;;;1636052;86;21163;-69
2022/10/06 09:31:46;;;;;;;6.17;3.77;;;;;;;;;;1631055;86;21075;-70
2022/10/06 09:34:22;;;;;;;5.45;3.25;;;;;;;;;;1595338;88;21079;-72
2022/10/06 09:37:01;;;;;;;4.25;2.90;;;;;;;;;;1556013;90;21416;-70
2022/10/06 09:39:25;;;;;;;4.75;3.00;;;;;;;;;;1623227;86;21036;-70
2022/10/06 09:41:52;;;;;;;5.20;3.10;;;;;;;;;;1631233;86;21083;-73
2022/10/06 09:44:19;;;;;;;5.87;2.77;;;;;;;;;;1628112;88;21064;-74
2022/10/06 09:46:45;;;;;;;5.37;3.08;;;;;;;;;;1626947;88;21064;-73
2022/10/06 09:49:19;;;;;;;4.92;3.25;;;;;;;;;;1626633;86;21523;-73
2022/10/06 09:51:56;;;;;;;5.00;3.15;;;;;;;;;;1626872;86;21117;-73
2022/10/06 09:54:24;;;;;;;5.70;2.95;;;;;;;;;;1630574;86;21040;-73
2022/10/06 09:56:50;;;;;;;4.75;2.98;;;;;;;;;;1642796;87;21097;-75
2022/10/06 09:59:20;;;;;;;3.67;2.83;;;;;;;;;;1627801;88;21124;-74
2022/10/06 10:01:54;;;;;;;4.22;2.92;;;;;;;;;;1622623;88;21088;-74
2022/10/06 10:04:25;;;;;;;6.00;3.20;;;;;;;;;;1594581;88;21081;-73
2022/10/06 10:06:51;;;;;;;5.12;3.00;;;;;;;;;;1626244;88;21080;-71
2022/10/06 10:09:20;;;;;;;4.97;3.67;;;;;;;;;;1631446;86;21091;-74
2022/10/06 10:14:53;;;;;;;5.42;2.75;;;;;;;;;;1625610;88;21100;-75
2022/10/06 10:17:21;;;;;;;4.03;2.80;;;;;;;;;;1612632;88;21607;-73
2022/10/06 10:19:53;;;;;;;4.92;3.25;;;;;;;;;;1624453;88;21014;-75
2022/10/06 10:22:21;;;;;;;4.10;2.87;;;;;;;;;;1626983;88;21085;-74
2022/10/06 10:24:58;;;;;;;4.12;2.77;;;;;;;;;;1624445;88;21029;-75
2022/10/06 10:27:30;;;;;;;5.30;2.98;;;;;;;;;;1624186;88;21048;-73
2022/10/06 10:30:00;;;;;;;4.17;2.75;;;;;;;;;;1625645;86;21112;-74
2022/10/06 10:32:43;;;;;;;3.85;2.72;;;;;;;;;;1611832;87;21008;-72
2022/10/06 10:35:12;;;;;;;4.47;2.90;;;;;;;;;;1635290;88;21039;-73
2022/10/06 10:37:40;;;;;;;6.28;2.80;;;;;;;;;;1634917;88;21504;-73
2022/10/06 10:40:07;;;;;;;4.50;2.90;;;;;;;;;;1610691;87;21045;-70
2022/10/06 10:42:36;;;;;;;4.03;2.80;;;;;;;;;;1608167;89;21100;-71
2022/10/06 10:45:03;;;;;;;3.75;2.65;;;;;;;;;;1638485;87;21073;-72
2022/10/06 10:47:31;;;;;;;5.17;3.42;;;;;;;;;;1610980;89;21608;-72
2022/10/06 10:50:01;;;;;;;3.85;2.87;;;;;;;;;;1612966;88;21140;-73
2022/10/06 10:52:29;;;;;;;5.03;3.02;;;;;;;;;;1581794;90;21594;-72
2022/10/06 10:55:03;;;;;;;8.90;3.20;;;;;;;;;;1609869;89;21112;-71
2022/10/06 10:57:36;;;;;;;4.95;3.20;;;;;;;;;;1610329;89;21103;-72
2022/10/06 11:00:06;;;;;;;4.95;3.10;;;;;;;;;;1611571;89;21044;-72
2022/10/06 11:02:34;;;;;;;4.97;2.60;;;;;;;;;;1624511;88;21065;-73
2022/10/06 11:05:02;;;;;;;4.17;3.10;;;;;;;;;;1624702;88;21244;-72
2022/10/06 11:07:29;;;;;;;3.80;2.80;;;;;;;;;;1611160;88;21053;-72
2022/10/06 11:10:00;;;;;;;5.78;3.00;;;;;;;;;;1625981;86;21055;-73
2022/10/06 11:12:35;;;;;;;3.25;2.65;;;;;;;;;;1620296;88;21611;-73
2022/10/06 11:15:03;;;;;;;4.87;3.17;;;;;;;;;;1626145;88;21057;-73
2022/10/06 11:17:41;;;;;;;4.62;3.08;;;;;;;;;;1624733;88;21077;-72
2022/10/06 11:20:08;;;;;;;4.17;3.00;;;;;;;;;;1625088;86;21053;-72
2022/10/06 11:22:36;;;;;;;4.37;2.90;;;;;;;;;;1623809;86;21112;-72
2022/10/06 11:25:12;;;;;;;4.67;2.90;;;;;;;;;;1625309;88;21014;-72
2022/10/06 11:27:40;;;;;;;5.80;2.75;;;;;;;;;;1623806;88;21094;-73
2022/10/06 11:30:14;;;;;;;5.12;2.87;;;;;;;;;;1632584;86;21082;-73
2022/10/06 11:32:48;;;;;;;4.15;2.80;;;;;;;;;;1624031;88;21041;-73
2022/10/06 11:35:20;;;;;;;4.28;2.75;;;;;;;;;;1627265;88;21072;-73
2022/10/06 11:37:54;;;;;;;5.12;2.90;;;;;;;;;;1641172;86;21098;-73
2022/10/06 11:40:39;;;;;;;5.10;2.80;;;;;;;;;;1632930;86;21566;-73
2022/10/06 11:43:16;;;;;;;4.33;2.85;;;;;;;;;;1648867;86;21055;-73
2022/10/06 11:46:00;;;;;;;4.90;2.90;;;;;;;;;;1641110;86;21035;-73
2022/10/06 11:48:27;;;;;;;4.60;3.08;;;;;;;;;;1642927;86;21587;-72
2022/10/06 11:50:54;;;;;;;4.12;2.90;;;;;;;;;;1644707;86;21008;-72
2022/10/06 11:53:38;;;;;;;5.42;2.83;;;;;;;;;;1640729;87;21523;-72
2022/10/06 11:56:18;;;;;;;4.40;3.17;;;;;;;;;;1641092;87;21094;-72
2022/10/06 11:58:52;;;;;;;4.90;2.83;;;;;;;;;;1640635;86;21051;-73
2022/10/06 12:01:33;;;;;;;6.83;3.00;;;;;;;;;;1639902;87;21116;-72
2022/10/06 12:04:04;;;;;;;5.00;3.17;;;;;;;;;;1640159;87;21063;-72
2022/10/06 12:06:41;;;;;;;4.08;2.80;;;;;;;;;;1641275;87;21068;-72
2022/10/06 12:09:29;;;;;;;4.78;2.90;;;;;;;;;;1639005;86;21539;-73
2022/10/06 12:11:57;;;;;;;5.58;3.02;;;;;;;;;;1618185;88;21077;-73
2022/10/06 12:14:32;;;;;;;6.20;3.00;;;;;;;;;;1622586;88;21081;-73
2022/10/06 12:17:02;;;;;;;3.75;2.98;;;;;;;;;;1626136;88;21076;-73
2022/10/06 12:19:33;;;;;;;4.60;2.80;;;;;;;;;;1617119;88;21080;-72
2022/10/06 12:22:01;;;;;;;6.15;3.10;;;;;;;;;;1612641;88;21077;-71
2022/10/06 12:24:40;;;;;;;4.85;3.25;;;;;;;;;;1616364;88;21049;-72
2022/10/06 12:27:27;;;;;;;4.67;3.17;;;;;;;;;;1587593;90;21545;-74
2022/10/06 12:30:02;;;;;;;5.70;3.22;;;;;;;;;;1589968;89;21076;-73
2022/10/06 12:32:47;;;;;;;4.67;2.90;;;;;;;;;;1573929;91;21036;-72
2022/10/06 12:35:18;;;;;;;4.72;2.83;;;;;;;;;;1556262;91;21142;-72
2022/10/06 12:37:47;;;;;;;3.67;2.92;;;;;;;;;;1618231;88;21120;-72
2022/10/06 12:40:31;;;;;;;4.87;3.02;;;;;;;;;;1622453;88;21351;-72
2022/10/06 12:43:13;;;;;;;6.47;3.40;;;;;;;;;;1621961;88;21018;-73
2022/10/06 12:45:42;;;;;;;3.63;2.93;;;;;;;;;;1622290;88;21002;-73
2022/10/06 12:48:17;;;;;;;6.15;3.12;;;;;;;;;;1616991;88;22126;-72
2022/10/06 12:50:43;;;;;;;4.20;3.08;;;;;;;;;;1622216;88;21057;-73
2022/10/06 12:53:13;;;;;;;3.80;2.80;;;;;;;;;;1621679;88;22126;-73
2022/10/06 12:55:47;;;;;;;4.05;2.85;;;;;;;;;;1620489;88;21049;-73
2022/10/06 12:58:17;;;;;;;5.17;3.10;;;;;;;;;;1618823;88;21548;-74
2022/10/06 13:00:45;;;;;;;5.10;3.27;;;;;;;;;;1619712;88;21067;-74
2022/10/06 13:03:16;;;;;;;6.03;3.00;;;;;;;;;;1624023;88;21097;-73
2022/10/06 13:05:44;;;;;;;5.35;3.10;;;;;;;;;;1616206;88;21091;-74
2022/10/06 13:08:22;;;;;;;3.47;2.58;;;;;;;;;;1618198;88;21076;-73
2022/10/06 13:10:48;;;;;;;6.25;3.10;;;;;;;;;;1629266;87;21060;-74
2022/10/06 13:13:19;;;;;;;5.95;3.05;;;;;;;;;;1640695;87;21039;-72
2022/10/06 13:15:45;;;;;;;3.87;2.70;;;;;;;;;;1638654;87;21580;-73
2022/10/06 13:18:13;;;;;;;6.17;2.90;;;;;;;;;;1638709;86;21052;-73
2022/10/06 13:20:44;;;;;;;4.22;2.80;;;;;;;;;;1639725;87;21107;-74
2022/10/06 13:23:30;;;;;;;4.75;2.70;;;;;;;;;;1640234;87;21028;-74
2022/10/06 13:26:07;;;;;;;4.22;2.70;;;;;;;;;;1640535;87;21585;-75
2022/10/06 13:28:34;;;;;;;4.97;3.02;;;;;;;;;;1641024;86;21016;-74
2022/10/06 13:31:02;;;;;;;10.98;7.72;;;;;;;;;;1640108;87;21033;-73
2022/10/06 13:33:30;;;;;;;4.83;3.40;;;;;;;;;;1643811;86;21111;-73
2022/10/06 13:35:56;;;;;;;4.60;2.90;;;;;;;;;;1651513;85;21085;-73
2022/10/06 13:38:22;;;;;;;5.28;3.00;;;;;;;;;;1640161;86;21037;-73
2022/10/06 13:41:01;;;;;;;8.35;3.33;;;;;;;;;;1640251;87;21097;-74
2022/10/06 13:43:29;;;;;;;5.30;3.05;;;;;;;;;;1636152;87;22077;-72
2022/10/06 13:45:56;;;;;;;5.28;3.15;;;;;;;;;;1638818;87;21025;-73
2022/10/06 13:48:24;;;;;;;6.37;3.40;;;;;;;;;;1610177;89;21609;-74
2022/10/06 13:50:51;;;;;;;4.08;2.85;;;;;;;;;;1617808;88;21013;-73
2022/10/06 13:53:20;;;;;;;5.70;2.75;;;;;;;;;;1619683;88;21600;-71
2022/10/06 13:55:48;;;;;;;5.12;2.95;;;;;;;;;;1614799;88;21060;-72
2022/10/06 13:58:15;;;;;;;6.85;3.60;;;;;;;;;;1610587;89;21101;-71
2022/10/06 14:00:47;;;;;;;4.35;2.98;;;;;;;;;;1640661;87;21084;-72
2022/10/06 14:03:21;;;;;;;4.35;2.80;;;;;;;;;;1643194;86;21008;-72
2022/10/06 14:05:47;;;;;;;5.87;2.75;;;;;;;;;;1610869;89;21722;-72
2022/10/06 14:08:22;;;;;;;4.50;3.00;;;;;;;;;;1615409;88;21072;-73
2022/10/06 14:10:54;;;;;;;6.30;3.22;;;;;;;;;;1605446;89;21110;-73
2022/10/06 14:13:23;;;;;;;4.20;2.90;;;;;;;;;;1597456;89;21095;-72
2022/10/06 14:15:51;;;;;;;4.15;2.90;;;;;;;;;;1597532;89;21098;-72
2022/10/06 14:18:26;;;;;;;4.30;3.27;;;;;;;;;;1600087;89;21308;-72
2022/10/06 14:20:55;;;;;;;4.85;3.20;;;;;;;;;;1596093;89;21107;-73
2022/10/06 14:23:33;;;;;;;6.90;3.33;;;;;;;;;;1595958;89;21057;-73
2022/10/06 14:25:59;;;;;;;5.78;3.58;;;;;;;;;;1597111;89;21060;-73
2022/10/06 14:28:27;;;;;;;4.85;3.00;;;;;;;;;;1596606;89;21504;-73
2022/10/06 14:30:54;;;;;;;4.85;2.90;;;;;;;;;;1597804;90;21096;-73
2022/10/06 14:33:20;;;;;;;6.30;4.08;;;;;;;;;;1600512;89;21578;-73
2022/10/06 14:35:48;;;;;;;5.85;4.20;;;;;;;;;;1597290;89;21086;-73
2022/10/06 14:38:14;;;;;;;8.30;3.98;;;;;;;;;;1622619;87;21063;-72
2022/10/06 14:40:41;;;;;;;5.45;3.35;;;;;;;;;;1623477;88;21633;-72
2022/10/06 14:43:07;;;;;;;5.12;3.12;;;;;;;;;;1625214;86;21035;-73
2022/10/06 14:45:34;;;;;;;5.47;3.00;;;;;;;;;;1627203;87;21012;-73
2022/10/06 14:48:01;;;;;;;4.45;2.90;;;;;;;;;;1629548;88;21032;-74
2022/10/06 14:50:29;;;;;;;5.62;3.25;;;;;;;;;;1597084;89;21129;-73
2022/10/06 14:52:58;;;;;;;6.20;3.45;;;;;;;;;;1631606;87;21103;-72
2022/10/06 14:55:28;;;;;;;3.70;2.90;;;;;;;;;;1629611;88;21120;-74
2022/10/06 14:57:53;;;;;;;5.53;3.55;;;;;;;;;;1585698;90;21592;-74
2022/10/06 15:00:21;;;;;;;6.37;3.58;;;;;;;;;;1595096;89;22182;-72
2022/10/06 15:02:47;;;;;;;6.50;3.60;;;;;;;;;;1597831;89;21132;-72
2022/10/06 15:05:13;;;;;;;6.83;3.15;;;;;;;;;;1628649;88;21119;-73
2022/10/06 15:10:25;;;;;;;7.42;5.08;;;;;;;;;;1625945;86;21509;-74
2022/10/06 15:12:51;;;;;;;9.20;6.80;;;;;;;;;;1620433;88;21021;-73
2022/10/06 15:15:18;;;;;;;7.08;6.12;;;;;;;;;;1588742;90;21049;-73
2022/10/06 15:17:46;;;;;;;8.78;4.67;;;;;;;;;;1589708;90;21652;-74
2022/10/06 15:20:13;;;;;;;5.90;4.17;;;;;;;;;;1591555;89;21052;-74
2022/10/06 15:22:40;;;;;;;8.10;4.15;;;;;;;;;;1588124;90;21096;-74
2022/10/06 15:25:06;;;;;;;5.40;3.72;;;;;;;;;;1623866;88;21057;-74
2022/10/06 15:30:17;;;;;;;7.47;3.77;;;;;;;;;;1619197;86;21140;-74